createdAt,value
2023-03-24T00:00:01.903Z,0.40
2023-03-24T00:00:25.022Z,0.32
2023-03-24T00:00:47.632Z,0.57
2023-03-24T00:01:10.519Z,0.40
2023-03-24T00:01:32.275Z,0.40
2023-03-24T00:01:54.362Z,0.40
2023-03-24T00:02:17.739Z,0.40
2023-03-24T00:02:42.568Z,0.35
2023-03-24T00:03:04.427Z,0.40
2023-03-24T00:03:29.512Z,0.40
2023-03-24T00:03:52.310Z,0.40
2023-03-24T00:04:15.514Z,0.50
2023-03-24T00:04:39.058Z,0.40
2023-03-24T00:05:01.247Z,0.40
2023-03-24T00:05:24.485Z,0.50
2023-03-24T00:05:46.294Z,0.47
2023-03-24T00:06:13.696Z,0.40
2023-03-24T00:06:36.790Z,0.50
2023-03-24T00:07:01.773Z,0.40
2023-03-24T00:07:25.545Z,0.30
2023-03-24T00:07:54.151Z,0.47
2023-03-24T00:08:17.847Z,0.47
2023-03-24T00:08:43.958Z,0.50
2023-03-24T00:09:06.168Z,0.28
2023-03-24T00:09:28.837Z,0.50
2023-03-24T00:09:50.812Z,0.30
2023-03-24T00:10:17.968Z,0.35
2023-03-24T00:10:40.408Z,0.40
2023-03-24T00:11:04.257Z,0.40
2023-03-24T00:11:26.361Z,0.32
2023-03-24T00:11:49.124Z,0.32
2023-03-24T00:12:13.934Z,0.40
2023-03-24T00:12:38.768Z,0.40
2023-03-24T00:13:01.188Z,0.40
2023-03-24T00:13:24.526Z,0.35
2023-03-24T00:13:47.265Z,0.60
2023-03-24T00:14:12.160Z,0.60
2023-03-24T00:14:33.987Z,0.30
2023-03-24T00:14:56.692Z,0.40
2023-03-24T00:15:21.262Z,0.40
2023-03-24T00:15:43.083Z,0.30
2023-03-24T00:16:06.359Z,0.35
2023-03-24T00:16:29.528Z,0.40
2023-03-24T00:16:52.794Z,0.30
2023-03-24T00:17:17.407Z,0.50
2023-03-24T00:17:39.570Z,0.30
2023-03-24T00:18:02.418Z,0.40
2023-03-24T00:18:25.965Z,0.47
2023-03-24T00:18:52.770Z,0.45
2023-03-24T00:19:15.090Z,0.30
2023-03-24T00:19:38.292Z,0.30
2023-03-24T00:19:59.975Z,0.38
2023-03-24T00:20:23.058Z,0.80
2023-03-24T00:20:45.963Z,1.30
2023-03-24T00:21:11.564Z,0.50
2023-03-24T00:21:33.505Z,0.40
2023-03-24T00:21:55.990Z,0.47
2023-03-24T00:22:17.770Z,0.50
2023-03-24T00:22:42.430Z,0.60
2023-03-24T00:23:05.079Z,0.50
2023-03-24T00:23:27.902Z,0.50
2023-03-24T00:23:49.634Z,0.70
2023-03-24T00:24:12.751Z,0.45
2023-03-24T00:24:35.642Z,0.55
2023-03-24T00:24:58.323Z,0.60
2023-03-24T00:25:23.306Z,0.30
2023-03-24T00:25:45.410Z,0.32
2023-03-24T00:26:12.230Z,0.38
2023-03-24T00:26:38.366Z,0.30
2023-03-24T00:27:03.460Z,0.30
2023-03-24T00:27:30.162Z,0.40
2023-03-24T00:27:53.265Z,0.40
2023-03-24T00:28:16.229Z,0.40
2023-03-24T00:28:39.113Z,0.30
2023-03-24T00:29:02.009Z,0.32
2023-03-24T00:29:24.730Z,0.75
2023-03-24T00:29:48.029Z,0.60
2023-03-24T00:30:11.667Z,0.60
2023-03-24T00:30:34.899Z,0.47
2023-03-24T00:30:56.622Z,0.40
2023-03-24T00:31:19.470Z,0.22
2023-03-24T00:31:43.212Z,0.35
2023-03-24T00:32:06.358Z,0.40
2023-03-24T00:32:30.266Z,0.22
2023-03-24T00:32:53.528Z,0.40
2023-03-24T00:33:15.606Z,0.40
2023-03-24T00:33:37.700Z,0.32
2023-03-24T00:34:02.715Z,0.52
2023-03-24T00:34:24.490Z,0.40
2023-03-24T00:34:46.215Z,0.40
2023-03-24T00:35:09.874Z,0.50
2023-03-24T00:35:34.250Z,0.40
2023-03-24T00:35:57.759Z,0.57
2023-03-24T00:36:21.253Z,0.45
2023-03-24T00:36:43.040Z,0.30
2023-03-24T00:37:06.588Z,0.40
2023-03-24T00:37:28.338Z,0.30
2023-03-24T00:37:52.074Z,0.20
2023-03-24T00:38:15.264Z,0.32
2023-03-24T00:38:38.153Z,0.30
2023-03-24T00:39:01.053Z,0.35
2023-03-24T00:39:22.886Z,0.50
2023-03-24T00:39:44.882Z,0.43
2023-03-24T00:40:12.399Z,0.40
2023-03-24T00:40:34.165Z,0.40
2023-03-24T00:40:55.948Z,0.60
2023-03-24T00:41:20.089Z,0.43
2023-03-24T00:41:45.106Z,0.43
2023-03-24T00:42:07.247Z,0.47
2023-03-24T00:42:29.286Z,0.50
2023-03-24T00:42:51.207Z,0.50
2023-03-24T00:43:14.330Z,0.35
2023-03-24T00:43:36.679Z,0.38
2023-03-24T00:44:00.290Z,0.43
2023-03-24T00:44:22.958Z,0.40
2023-03-24T00:44:44.937Z,0.50
2023-03-24T00:45:09.068Z,0.43
2023-03-24T00:45:34.439Z,0.40
2023-03-24T00:46:02.424Z,0.30
2023-03-24T00:46:28.507Z,0.40
2023-03-24T00:46:56.379Z,0.40
2023-03-24T00:47:26.183Z,0.40
2023-03-24T00:47:49.979Z,0.47
2023-03-24T00:48:12.853Z,0.40
2023-03-24T00:48:34.978Z,0.30
2023-03-24T00:49:02.652Z,0.40
2023-03-24T00:49:42.362Z,0.30
2023-03-24T00:50:06.698Z,0.60
2023-03-24T00:50:28.683Z,0.43
2023-03-24T00:50:52.839Z,0.65
2023-03-24T00:51:14.589Z,0.50
2023-03-24T00:51:38.190Z,0.43
2023-03-24T00:52:01.792Z,0.40
2023-03-24T00:52:26.191Z,0.43
2023-03-24T00:52:49.108Z,0.40
2023-03-24T00:53:15.834Z,0.40
2023-03-24T00:53:43.900Z,0.40
2023-03-24T00:54:06.726Z,0.35
2023-03-24T00:54:32.038Z,0.40
2023-03-24T00:54:55.199Z,0.50
2023-03-24T00:55:18.094Z,0.40
2023-03-24T00:55:40.586Z,0.32
2023-03-24T00:56:02.274Z,0.38
2023-03-24T00:56:26.650Z,0.50
2023-03-24T00:56:49.943Z,0.43
2023-03-24T00:57:13.019Z,0.50
2023-03-24T00:57:34.940Z,0.52
2023-03-24T00:57:57.029Z,0.50
2023-03-24T00:58:20.264Z,0.45
2023-03-24T00:58:42.119Z,0.35
2023-03-24T00:59:04.228Z,0.38
2023-03-24T00:59:29.420Z,0.50
2023-03-24T00:59:54.543Z,0.40
2023-03-24T01:00:19.668Z,0.50
2023-03-24T01:00:42.368Z,0.50
2023-03-24T01:01:06.585Z,0.70
2023-03-24T01:01:33.109Z,0.35
2023-03-24T01:01:54.848Z,0.40
2023-03-24T01:02:19.176Z,0.60
2023-03-24T01:02:41.462Z,0.80
2023-03-24T01:03:05.423Z,0.40
2023-03-24T01:03:27.496Z,0.52
2023-03-24T01:03:50.963Z,0.57
2023-03-24T01:04:14.095Z,0.30
2023-03-24T01:04:37.518Z,0.30
2023-03-24T01:05:02.108Z,0.70
2023-03-24T01:05:25.902Z,0.32
2023-03-24T01:05:48.478Z,0.45
2023-03-24T01:06:11.484Z,0.80
2023-03-24T01:06:36.537Z,0.52
2023-03-24T01:06:58.549Z,0.40
2023-03-24T01:07:20.537Z,0.40
2023-03-24T01:07:43.225Z,0.50
2023-03-24T01:08:07.386Z,0.50
2023-03-24T01:08:31.318Z,0.60
2023-03-24T01:08:53.947Z,0.60
2023-03-24T01:09:15.728Z,0.50
2023-03-24T01:09:38.483Z,0.43
2023-03-24T01:10:00.463Z,0.55
2023-03-24T01:10:26.248Z,0.70
2023-03-24T01:10:53.065Z,0.68
2023-03-24T01:11:15.256Z,0.50
2023-03-24T01:11:40.236Z,0.60
2023-03-24T01:12:05.016Z,0.65
2023-03-24T01:12:28.993Z,0.50
2023-03-24T01:12:50.680Z,0.40
2023-03-24T01:13:12.424Z,0.63
2023-03-24T01:13:35.220Z,0.50
2023-03-24T01:13:57.038Z,0.70
2023-03-24T01:14:19.610Z,0.50
2023-03-24T01:14:41.687Z,0.70
2023-03-24T01:15:09.437Z,0.40
2023-03-24T01:15:33.445Z,0.40
2023-03-24T01:15:56.646Z,0.60
2023-03-24T01:16:18.757Z,0.40
2023-03-24T01:16:42.813Z,0.55
2023-03-24T01:17:06.359Z,0.50
2023-03-24T01:17:29.505Z,0.50
2023-03-24T01:17:53.321Z,0.55
2023-03-24T01:18:16.851Z,0.77
2023-03-24T01:18:40.716Z,0.70
2023-03-24T01:19:02.505Z,0.40
2023-03-24T01:19:25.458Z,0.50
2023-03-24T01:19:47.268Z,0.52
2023-03-24T01:20:12.042Z,0.50
2023-03-24T01:20:34.022Z,0.65
2023-03-24T01:20:55.771Z,0.40
2023-03-24T01:21:18.203Z,0.40
2023-03-24T01:21:42.078Z,0.35
2023-03-24T01:22:04.295Z,0.52
2023-03-24T01:22:29.695Z,0.50
2023-03-24T01:22:51.834Z,0.50
2023-03-24T01:23:16.604Z,0.40
2023-03-24T01:23:41.921Z,0.40
2023-03-24T01:24:05.096Z,0.50
2023-03-24T01:24:27.916Z,0.40
2023-03-24T01:24:51.106Z,0.40
2023-03-24T01:25:16.083Z,0.40
2023-03-24T01:25:38.010Z,0.40
2023-03-24T01:26:00.217Z,0.55
2023-03-24T01:26:23.249Z,0.65
2023-03-24T01:26:44.972Z,0.60
2023-03-24T01:27:06.759Z,0.63
2023-03-24T01:27:28.716Z,0.75
2023-03-24T01:27:52.252Z,0.40
2023-03-24T01:28:16.712Z,0.50
2023-03-24T01:28:41.015Z,0.60
2023-03-24T01:29:03.202Z,0.73
2023-03-24T01:29:25.921Z,0.65
2023-03-24T01:29:47.650Z,0.60
2023-03-24T01:30:13.068Z,0.40
2023-03-24T01:30:34.886Z,0.70
2023-03-24T01:31:53.336Z,0.50
2023-03-24T01:32:15.536Z,0.60
2023-03-24T01:32:37.474Z,0.50
2023-03-24T01:32:59.596Z,0.60
2023-03-24T01:33:22.193Z,0.40
2023-03-24T01:33:44.940Z,0.52
2023-03-24T01:34:07.904Z,0.50
2023-03-24T01:34:29.688Z,0.40
2023-03-24T01:34:51.571Z,0.40
2023-03-24T01:35:14.584Z,0.32
2023-03-24T01:35:36.960Z,0.40
2023-03-24T01:35:59.191Z,0.60
2023-03-24T01:36:21.457Z,0.73
2023-03-24T01:36:44.190Z,0.60
2023-03-24T01:37:05.988Z,0.52
2023-03-24T01:37:27.747Z,0.60
2023-03-24T01:37:49.851Z,0.50
2023-03-24T01:38:13.424Z,0.50
2023-03-24T01:38:36.709Z,0.40
2023-03-24T01:39:01.383Z,0.38
2023-03-24T01:39:23.558Z,0.30
2023-03-24T01:39:45.561Z,0.40
2023-03-24T01:40:09.533Z,0.73
2023-03-24T01:40:36.160Z,0.55
2023-03-24T01:40:58.512Z,0.40
2023-03-24T01:41:20.678Z,0.30
2023-03-24T01:41:43.507Z,0.50
2023-03-24T01:42:05.388Z,0.50
2023-03-24T01:42:28.410Z,0.60
2023-03-24T01:42:51.214Z,0.40
2023-03-24T01:43:22.538Z,0.40
2023-03-24T01:43:44.626Z,0.30
2023-03-24T01:44:27.824Z,0.40
2023-03-24T01:44:52.475Z,0.50
2023-03-24T01:45:51.801Z,0.50
2023-03-24T01:46:17.870Z,0.70
2023-03-24T01:46:39.830Z,0.22
2023-03-24T01:47:06.151Z,0.50
2023-03-24T01:47:28.056Z,0.40
2023-03-24T01:47:50.034Z,0.50
2023-03-24T01:48:16.930Z,0.32
2023-03-24T01:48:43.904Z,0.45
2023-03-24T01:49:07.673Z,0.70
2023-03-24T01:49:35.758Z,0.30
2023-03-24T01:50:00.520Z,0.50
2023-03-24T01:50:22.327Z,0.68
2023-03-24T01:50:48.673Z,0.47
2023-03-24T01:51:22.364Z,0.30
2023-03-24T01:51:47.433Z,0.40
2023-03-24T01:52:13.145Z,0.40
2023-03-24T01:52:36.545Z,0.50
2023-03-24T01:53:00.019Z,0.50
2023-03-24T01:53:23.652Z,0.60
2023-03-24T01:53:50.179Z,0.50
2023-03-24T01:54:19.055Z,0.50
2023-03-24T01:54:45.258Z,0.30
2023-03-24T01:55:16.073Z,0.50
2023-03-24T01:55:38.587Z,0.45
2023-03-24T01:56:06.085Z,0.40
2023-03-24T01:56:35.477Z,0.35
2023-03-24T01:57:03.444Z,0.55
2023-03-24T01:57:30.750Z,0.40
2023-03-24T01:57:56.691Z,0.40
2023-03-24T01:58:24.073Z,0.50
2023-03-24T01:59:21.421Z,0.50
2023-03-24T02:00:08.285Z,0.70
2023-03-24T02:00:38.085Z,0.38
2023-03-24T02:01:21.927Z,0.50
2023-03-24T02:02:03.000Z,0.50
2023-03-24T02:02:36.558Z,0.47
2023-03-24T02:03:06.669Z,0.70
2023-03-24T02:03:38.913Z,0.40
2023-03-24T02:04:05.059Z,0.80
2023-03-24T02:04:28.326Z,0.60
2023-03-24T02:05:09.977Z,0.60
2023-03-24T02:05:38.867Z,0.50
2023-03-24T02:06:02.542Z,0.55
2023-03-24T02:06:26.127Z,0.30
2023-03-24T02:06:52.078Z,0.47
2023-03-24T02:07:18.540Z,0.57
2023-03-24T02:07:45.575Z,0.32
2023-03-24T02:08:15.345Z,0.50
2023-03-24T02:08:42.754Z,0.50
2023-03-24T02:09:04.483Z,0.30
2023-03-24T02:09:29.920Z,0.35
2023-03-24T02:09:54.193Z,0.45
2023-03-24T02:10:19.042Z,0.50
2023-03-24T02:10:44.210Z,0.30
2023-03-24T02:11:06.839Z,0.40
2023-03-24T02:11:39.674Z,0.45
2023-03-24T02:12:04.875Z,0.50
2023-03-24T02:12:28.869Z,0.57
2023-03-24T02:12:51.815Z,0.50
2023-03-24T02:13:15.375Z,0.40
2023-03-24T02:13:38.290Z,0.40
2023-03-24T02:14:01.761Z,0.50
2023-03-24T02:14:24.736Z,0.50
2023-03-24T02:14:47.709Z,0.43
2023-03-24T02:15:12.168Z,0.40
2023-03-24T02:15:38.874Z,0.52
2023-03-24T02:16:14.049Z,0.55
2023-03-24T02:16:59.053Z,0.50
2023-03-24T02:17:35.828Z,0.60
2023-03-24T02:18:08.070Z,0.45
2023-03-24T02:18:45.080Z,0.50
2023-03-24T02:19:46.924Z,0.30
2023-03-24T02:21:01.316Z,0.60
2023-03-24T02:22:03.198Z,0.30
2023-03-24T02:22:47.997Z,0.50
2023-03-24T02:23:42.430Z,0.50
2023-03-24T02:24:30.962Z,0.47
2023-03-24T02:25:38.542Z,0.40
2023-03-24T02:26:42.922Z,0.57
2023-03-24T02:27:13.337Z,0.52
2023-03-24T02:27:55.295Z,0.90
2023-03-24T02:28:30.164Z,0.70
2023-03-24T02:29:03.466Z,0.43
2023-03-24T02:29:52.640Z,0.30
2023-03-24T02:30:33.776Z,0.50
2023-03-24T02:31:12.986Z,0.80
2023-03-24T02:31:52.550Z,0.40
2023-03-24T02:32:50.100Z,0.50
2023-03-24T02:33:38.242Z,0.50
2023-03-24T02:34:37.075Z,0.70
2023-03-24T02:35:30.651Z,0.70
2023-03-24T02:36:36.749Z,0.50
2023-03-24T02:37:35.559Z,0.60
2023-03-24T02:38:35.024Z,0.40
2023-03-24T02:39:30.273Z,0.47
2023-03-24T02:40:20.168Z,0.40
2023-03-24T02:40:47.785Z,0.60
2023-03-24T02:41:17.062Z,0.50
2023-03-24T02:41:46.625Z,0.73
2023-03-24T02:42:22.034Z,0.52
2023-03-24T02:42:57.669Z,0.40
2023-03-24T02:43:31.431Z,0.68
2023-03-24T02:44:01.319Z,0.40
2023-03-24T02:44:31.543Z,0.38
2023-03-24T02:45:06.361Z,0.38
2023-03-24T02:45:35.887Z,0.57
2023-03-24T02:46:13.844Z,0.47
2023-03-24T02:46:43.996Z,0.70
2023-03-24T02:47:16.114Z,0.43
2023-03-24T02:47:46.026Z,0.45
2023-03-24T02:48:21.917Z,0.50
2023-03-24T02:48:58.880Z,0.50
2023-03-24T02:49:30.644Z,0.52
2023-03-24T02:49:59.507Z,0.40
2023-03-24T02:50:28.532Z,0.50
2023-03-24T02:50:57.239Z,0.57
2023-03-24T02:51:25.993Z,0.40
2023-03-24T02:51:54.665Z,0.50
2023-03-24T02:52:22.239Z,0.47
2023-03-24T02:52:50.422Z,0.40
2023-03-24T02:53:18.889Z,0.50
2023-03-24T02:54:08.316Z,0.40
2023-03-24T02:54:40.645Z,0.30
2023-03-24T02:55:09.993Z,0.35
2023-03-24T02:55:37.129Z,0.73
2023-03-24T02:56:08.361Z,0.57
2023-03-24T02:56:38.669Z,0.60
2023-03-24T02:57:19.607Z,0.40
2023-03-24T02:58:05.483Z,0.40
2023-03-24T02:58:37.844Z,0.40
2023-03-24T02:59:02.953Z,0.57
2023-03-24T02:59:34.151Z,0.52
2023-03-24T03:00:04.871Z,0.45
2023-03-24T03:01:03.463Z,0.60
2023-03-24T03:01:54.433Z,0.30
2023-03-24T03:02:33.601Z,0.65
2023-03-24T03:03:03.051Z,0.50
2023-03-24T03:03:34.612Z,0.40
2023-03-24T03:04:07.058Z,0.60
2023-03-24T03:04:33.245Z,0.35
2023-03-24T03:05:00.958Z,0.40
2023-03-24T03:05:27.299Z,0.50
2023-03-24T03:05:59.730Z,0.40
2023-03-24T03:06:25.867Z,0.73
2023-03-24T03:06:52.400Z,0.60
2023-03-24T03:07:16.782Z,0.50
2023-03-24T03:07:41.270Z,0.47
2023-03-24T03:08:08.307Z,0.57
2023-03-24T03:08:33.773Z,0.70
2023-03-24T03:08:57.823Z,0.40
2023-03-24T03:09:24.257Z,0.50
2023-03-24T03:09:51.890Z,0.50
2023-03-24T03:10:18.169Z,0.50
2023-03-24T03:10:43.481Z,0.43
2023-03-24T03:11:11.055Z,0.50
2023-03-24T03:11:33.994Z,0.93
2023-03-24T03:11:58.652Z,0.63
2023-03-24T03:12:23.367Z,0.50
2023-03-24T03:12:51.429Z,0.40
2023-03-24T03:13:20.536Z,0.50
2023-03-24T03:13:48.796Z,0.40
2023-03-24T03:14:14.477Z,0.50
2023-03-24T03:14:42.517Z,0.50
2023-03-24T03:15:09.848Z,0.60
2023-03-24T03:15:37.221Z,0.38
2023-03-24T03:16:08.749Z,0.60
2023-03-24T03:16:38.428Z,0.70
2023-03-24T03:17:05.353Z,0.60
2023-03-24T03:17:33.267Z,0.45
2023-03-24T03:18:02.782Z,0.57
2023-03-24T03:18:30.341Z,0.60
2023-03-24T03:18:57.131Z,0.55
2023-03-24T03:19:22.347Z,0.50
2023-03-24T03:19:50.208Z,0.45
2023-03-24T03:20:16.526Z,0.50
2023-03-24T03:20:42.897Z,0.40
2023-03-24T03:21:10.957Z,0.50
2023-03-24T03:21:39.270Z,0.52
2023-03-24T03:22:06.438Z,0.60
2023-03-24T03:22:35.635Z,0.60
2023-03-24T03:23:02.496Z,0.40
2023-03-24T03:23:29.159Z,0.70
2023-03-24T03:23:56.444Z,0.43
2023-03-24T03:24:26.473Z,0.60
2023-03-24T03:24:53.059Z,0.40
2023-03-24T03:25:20.971Z,0.70
2023-03-24T03:25:50.359Z,0.50
2023-03-24T03:26:16.429Z,0.50
2023-03-24T03:26:38.619Z,0.50
2023-03-24T03:27:05.838Z,0.40
2023-03-24T03:27:32.312Z,0.50
2023-03-24T03:27:58.584Z,0.40
2023-03-24T03:28:23.725Z,0.50
2023-03-24T03:28:51.877Z,0.55
2023-03-24T03:29:18.554Z,0.50
2023-03-24T03:29:44.589Z,0.40
2023-03-24T03:30:13.468Z,0.40
2023-03-24T03:30:38.812Z,0.60
2023-03-24T03:31:06.344Z,0.40
2023-03-24T03:31:32.507Z,0.60
2023-03-24T03:32:00.938Z,0.50
2023-03-24T03:32:28.075Z,0.40
2023-03-24T03:32:55.287Z,0.60
2023-03-24T03:33:25.011Z,0.50
2023-03-24T03:33:53.010Z,0.40
2023-03-24T03:34:21.887Z,0.82
2023-03-24T03:34:49.028Z,0.45
2023-03-24T03:35:15.011Z,0.40
2023-03-24T03:35:44.380Z,0.60
2023-03-24T03:36:12.121Z,0.50
2023-03-24T03:36:39.600Z,0.40
2023-03-24T03:37:07.316Z,0.60
2023-03-24T03:37:37.704Z,0.60
2023-03-24T03:38:10.120Z,0.35
2023-03-24T03:38:39.753Z,0.50
2023-03-24T03:39:10.349Z,0.70
2023-03-24T03:39:36.982Z,0.50
2023-03-24T03:40:09.675Z,0.60
2023-03-24T03:40:39.146Z,0.50
2023-03-24T03:41:08.747Z,0.43
2023-03-24T03:41:31.905Z,0.30
2023-03-24T03:41:54.102Z,0.47
2023-03-24T03:42:17.028Z,0.45
2023-03-24T03:42:39.457Z,0.50
2023-03-24T03:43:04.369Z,0.40
2023-03-24T03:43:27.854Z,0.47
2023-03-24T03:43:51.372Z,0.52
2023-03-24T03:44:13.564Z,0.50
2023-03-24T03:44:35.554Z,0.30
2023-03-24T03:44:57.474Z,0.47
2023-03-24T03:45:19.852Z,0.50
2023-03-24T03:45:43.092Z,0.50
2023-03-24T03:46:06.381Z,0.50
2023-03-24T03:46:31.417Z,0.52
2023-03-24T03:46:53.477Z,0.50
2023-03-24T03:47:24.812Z,0.60
2023-03-24T03:47:48.378Z,0.45
2023-03-24T03:48:10.878Z,0.55
2023-03-24T03:48:33.949Z,0.45
2023-03-24T03:48:56.761Z,0.52
2023-03-24T03:49:18.938Z,0.60
2023-03-24T03:49:42.168Z,0.60
2023-03-24T03:50:05.804Z,0.43
2023-03-24T03:50:28.739Z,0.65
2023-03-24T03:51:06.364Z,0.55
2023-03-24T03:51:35.576Z,0.50
2023-03-24T03:51:57.730Z,0.50
2023-03-24T03:52:20.792Z,0.60
2023-03-24T03:52:44.792Z,0.73
2023-03-24T03:53:07.428Z,0.47
2023-03-24T03:53:36.960Z,0.50
2023-03-24T03:54:02.267Z,0.50
2023-03-24T03:54:28.784Z,0.40
2023-03-24T03:54:51.688Z,0.40
2023-03-24T03:55:14.832Z,0.40
2023-03-24T03:55:38.209Z,0.70
2023-03-24T03:56:01.313Z,0.45
2023-03-24T03:56:27.929Z,0.50
2023-03-24T03:57:01.728Z,0.40
2023-03-24T03:57:35.556Z,0.50
2023-03-24T03:58:04.496Z,0.40
2023-03-24T03:58:32.711Z,0.35
2023-03-24T03:58:55.690Z,0.50
2023-03-24T03:59:26.166Z,0.50
2023-03-24T03:59:48.131Z,0.40
2023-03-24T04:00:16.512Z,0.40
2023-03-24T04:00:50.985Z,0.50
2023-03-24T04:01:37.037Z,0.52
2023-03-24T04:02:34.026Z,0.40
2023-03-24T04:03:18.425Z,0.63
2023-03-24T04:04:09.493Z,0.50
2023-03-24T04:05:21.363Z,0.45
2023-03-24T04:06:01.748Z,0.65
2023-03-24T04:06:36.104Z,0.40
2023-03-24T04:07:13.536Z,0.45
2023-03-24T04:07:58.091Z,0.60
2023-03-24T04:08:49.590Z,0.60
2023-03-24T04:09:32.654Z,0.70
2023-03-24T04:10:05.774Z,0.70
2023-03-24T04:10:35.340Z,0.60
2023-03-24T04:11:37.472Z,0.60
2023-03-24T04:12:27.995Z,0.50
2023-03-24T04:13:28.027Z,0.50
2023-03-24T04:14:26.209Z,0.50
2023-03-24T04:15:21.967Z,0.40
2023-03-24T04:16:05.009Z,0.40
2023-03-24T04:17:01.519Z,0.60
2023-03-24T04:17:46.063Z,0.50
2023-03-24T04:18:35.646Z,0.40
2023-03-24T04:19:15.970Z,0.60
2023-03-24T04:19:55.742Z,0.40
2023-03-24T04:20:22.673Z,0.45
2023-03-24T04:20:49.915Z,0.40
2023-03-24T04:21:33.778Z,0.47
2023-03-24T04:22:13.005Z,0.50
2023-03-24T04:22:47.460Z,0.47
2023-03-24T04:23:26.419Z,0.40
2023-03-24T04:24:00.141Z,0.50
2023-03-24T04:24:34.757Z,0.52
2023-03-24T04:25:04.165Z,0.43
2023-03-24T04:25:36.218Z,0.60
2023-03-24T04:26:10.304Z,0.50
2023-03-24T04:26:42.230Z,0.47
2023-03-24T04:27:11.222Z,0.60
2023-03-24T04:27:41.562Z,0.50
2023-03-24T04:28:14.383Z,0.70
2023-03-24T04:28:47.925Z,0.47
2023-03-24T04:29:18.536Z,0.40
2023-03-24T04:29:53.014Z,0.43
2023-03-24T04:30:23.762Z,0.50
2023-03-24T04:30:51.387Z,0.40
2023-03-24T04:31:23.507Z,0.55
2023-03-24T04:31:51.461Z,0.65
2023-03-24T04:32:21.006Z,0.70
2023-03-24T04:32:48.875Z,0.50
2023-03-24T04:33:22.403Z,0.60
2023-03-24T04:33:51.901Z,0.40
2023-03-24T04:34:20.674Z,0.50
2023-03-24T04:34:50.685Z,0.80
2023-03-24T04:35:36.628Z,0.40
2023-03-24T04:36:17.946Z,0.60
2023-03-24T04:37:05.376Z,0.50
2023-03-24T04:37:38.189Z,0.50
2023-03-24T04:38:11.944Z,0.30
2023-03-24T04:38:38.204Z,0.57
2023-03-24T04:39:18.260Z,0.52
2023-03-24T04:39:49.623Z,0.52
2023-03-24T04:40:16.424Z,0.32
2023-03-24T04:40:42.357Z,0.43
2023-03-24T04:41:06.866Z,0.50
2023-03-24T04:41:31.928Z,0.35
2023-03-24T04:42:10.118Z,0.30
2023-03-24T04:42:37.185Z,0.50
2023-03-24T04:43:04.062Z,0.35
2023-03-24T04:43:29.140Z,0.50
2023-03-24T04:43:53.256Z,0.40
2023-03-24T04:44:17.564Z,0.35
2023-03-24T04:44:57.640Z,0.40
2023-03-24T04:45:36.407Z,0.47
2023-03-24T04:46:03.926Z,0.32
2023-03-24T04:46:44.675Z,0.40
2023-03-24T04:47:12.411Z,2.75
2023-03-24T04:47:46.455Z,1.50
2023-03-24T04:48:22.499Z,0.40
2023-03-24T04:49:03.893Z,0.43
2023-03-24T04:49:30.808Z,0.20
2023-03-24T04:50:00.888Z,0.98
2023-03-24T04:50:30.771Z,5.30
2023-03-24T04:50:57.360Z,1.38
2023-03-24T04:51:21.295Z,1.25
2023-03-24T04:51:51.776Z,0.60
2023-03-24T04:52:18.266Z,0.65
2023-03-24T04:52:41.190Z,0.60
2023-03-24T04:53:04.307Z,0.50
2023-03-24T04:53:27.067Z,0.77
2023-03-24T04:53:50.328Z,0.70
2023-03-24T04:54:12.171Z,0.50
2023-03-24T04:54:39.005Z,0.40
2023-03-24T04:55:03.141Z,0.30
2023-03-24T04:55:50.040Z,0.40
2023-03-24T04:56:30.298Z,0.40
2023-03-24T04:57:02.931Z,0.40
2023-03-24T04:57:27.995Z,0.30
2023-03-24T04:58:00.716Z,0.40
2023-03-24T04:58:23.530Z,0.30
2023-03-24T04:58:45.190Z,0.30
2023-03-24T04:59:08.283Z,0.30
2023-03-24T04:59:34.487Z,0.40
2023-03-24T04:59:59.290Z,0.43
2023-03-24T05:00:21.912Z,0.30
2023-03-24T05:00:45.060Z,0.35
2023-03-24T05:01:09.247Z,0.50
2023-03-24T05:01:39.474Z,0.52
2023-03-24T05:02:21.955Z,0.40
2023-03-24T05:02:54.313Z,0.40
2023-03-24T05:03:21.057Z,0.30
2023-03-24T05:03:45.880Z,0.30
2023-03-24T05:04:09.675Z,0.30
2023-03-24T05:04:31.634Z,0.30
2023-03-24T05:05:00.410Z,0.30
2023-03-24T05:05:30.196Z,0.47
2023-03-24T05:05:53.980Z,0.30
2023-03-24T05:06:17.452Z,0.30
2023-03-24T05:06:41.502Z,0.22
2023-03-24T05:07:03.831Z,0.30
2023-03-24T05:07:27.116Z,0.40
2023-03-24T05:07:54.742Z,0.25
2023-03-24T05:08:18.866Z,0.30
2023-03-24T05:08:41.347Z,0.30
2023-03-24T05:09:04.823Z,0.30
2023-03-24T05:09:27.057Z,0.30
2023-03-24T05:09:50.463Z,0.50
2023-03-24T05:10:12.135Z,0.30
2023-03-24T05:10:46.483Z,0.20
2023-03-24T05:11:08.371Z,0.30
2023-03-24T05:11:31.497Z,0.28
2023-03-24T05:12:01.413Z,0.47
2023-03-24T05:12:26.798Z,0.70
2023-03-24T05:13:15.267Z,0.40
2023-03-24T05:13:48.132Z,1.52
2023-03-24T05:14:10.226Z,2.38
2023-03-24T05:14:32.060Z,1.45
2023-03-24T05:14:55.503Z,3.10
2023-03-24T05:15:17.736Z,5.68
2023-03-24T05:15:42.710Z,2.90
2023-03-24T05:16:28.021Z,2.20
2023-03-24T05:16:53.862Z,2.38
2023-03-24T05:17:17.701Z,1.90
2023-03-24T05:17:39.652Z,1.85
2023-03-24T05:18:01.815Z,0.77
2023-03-24T05:18:23.591Z,1.63
2023-03-24T05:18:50.938Z,2.20
2023-03-24T05:19:13.061Z,0.95
2023-03-24T05:19:36.399Z,0.40
2023-03-24T05:19:58.333Z,0.40
2023-03-24T05:20:21.584Z,0.40
2023-03-24T05:20:46.413Z,0.40
2023-03-24T05:21:13.518Z,0.28
2023-03-24T05:21:36.945Z,0.35
2023-03-24T05:22:01.081Z,0.60
2023-03-24T05:22:28.772Z,0.38
2023-03-24T05:22:52.274Z,0.30
2023-03-24T05:23:15.019Z,0.30
2023-03-24T05:23:39.563Z,0.40
2023-03-24T05:24:02.415Z,0.43
2023-03-24T05:24:24.158Z,0.40
2023-03-24T05:24:47.506Z,0.50
2023-03-24T05:25:10.836Z,0.40
2023-03-24T05:25:33.085Z,0.43
2023-03-24T05:25:56.202Z,0.38
2023-03-24T05:26:20.473Z,0.30
2023-03-24T05:27:14.647Z,0.40
2023-03-24T05:27:36.610Z,0.30
2023-03-24T05:28:11.349Z,0.20
2023-03-24T05:28:33.478Z,0.30
2023-03-24T05:28:55.176Z,0.52
2023-03-24T05:29:16.952Z,0.40
2023-03-24T05:29:40.824Z,0.43
2023-03-24T05:30:05.350Z,0.30
2023-03-24T05:30:29.168Z,0.40
2023-03-24T05:31:01.550Z,0.38
2023-03-24T05:31:38.694Z,0.50
2023-03-24T05:32:05.229Z,0.52
2023-03-24T05:32:29.014Z,0.50
2023-03-24T05:32:50.968Z,0.40
2023-03-24T05:33:13.502Z,0.32
2023-03-24T05:33:35.421Z,0.30
2023-03-24T05:33:58.830Z,0.30
2023-03-24T05:34:22.168Z,0.30
2023-03-24T05:34:53.388Z,0.60
2023-03-24T05:35:25.123Z,0.30
2023-03-24T05:35:47.209Z,0.30
2023-03-24T05:36:10.445Z,0.30
2023-03-24T05:36:33.288Z,0.30
2023-03-24T05:36:56.714Z,0.30
2023-03-24T05:37:18.788Z,0.35
2023-03-24T05:37:44.602Z,0.30
2023-03-24T05:38:06.399Z,0.40
2023-03-24T05:38:31.252Z,0.50
2023-03-24T05:38:53.079Z,0.43
2023-03-24T05:39:16.572Z,0.35
2023-03-24T05:39:50.262Z,0.40
2023-03-24T05:40:40.314Z,0.40
2023-03-24T05:41:12.074Z,0.30
2023-03-24T05:41:36.992Z,0.30
2023-03-24T05:41:58.861Z,0.40
2023-03-24T05:42:21.413Z,0.50
2023-03-24T05:42:44.175Z,0.47
2023-03-24T05:43:09.853Z,0.25
2023-03-24T05:43:35.598Z,0.50
2023-03-24T05:44:06.017Z,0.32
2023-03-24T05:44:28.615Z,0.40
2023-03-24T05:45:00.668Z,0.50
2023-03-24T05:45:22.998Z,0.40
2023-03-24T05:45:44.990Z,0.40
2023-03-24T05:46:18.931Z,0.50
2023-03-24T05:46:42.917Z,0.47
2023-03-24T05:47:04.846Z,0.38
2023-03-24T05:47:27.265Z,0.50
2023-03-24T05:47:51.341Z,0.30
2023-03-24T05:48:19.425Z,0.38
2023-03-24T05:48:57.726Z,0.38
2023-03-24T05:49:26.470Z,0.40
2023-03-24T05:49:50.395Z,0.30
2023-03-24T05:50:12.124Z,0.40
2023-03-24T05:50:34.411Z,0.30
2023-03-24T05:50:57.905Z,0.40
2023-03-24T05:51:20.444Z,0.30
2023-03-24T05:51:49.422Z,0.50
2023-03-24T05:52:14.790Z,0.25
2023-03-24T05:52:37.960Z,0.50
2023-03-24T05:53:16.377Z,0.30
2023-03-24T05:53:56.705Z,0.32
2023-03-24T05:54:33.996Z,0.32
2023-03-24T05:55:10.944Z,3.67
2023-03-24T05:55:35.142Z,4.32
2023-03-24T05:56:11.931Z,1.30
2023-03-24T05:57:07.999Z,1.55
2023-03-24T05:57:38.953Z,2.25
2023-03-24T05:58:22.716Z,2.30
2023-03-24T05:58:46.869Z,2.00
2023-03-24T05:59:11.494Z,3.13
2023-03-24T05:59:53.584Z,1.40
2023-03-24T06:00:35.684Z,0.90
2023-03-24T06:01:07.558Z,0.88
2023-03-24T06:01:30.880Z,0.90
2023-03-24T06:02:05.466Z,0.60
2023-03-24T06:02:59.718Z,0.70
2023-03-24T06:03:34.711Z,0.40
2023-03-24T06:04:02.776Z,0.52
2023-03-24T06:04:24.878Z,0.30
2023-03-24T06:04:51.728Z,0.30
2023-03-24T06:05:16.677Z,0.40
2023-03-24T06:05:40.955Z,0.43
2023-03-24T06:06:02.660Z,0.40
2023-03-24T06:06:24.588Z,0.38
2023-03-24T06:06:47.698Z,0.40
2023-03-24T06:07:15.045Z,0.45
2023-03-24T06:07:42.272Z,0.50
2023-03-24T06:08:04.400Z,0.47
2023-03-24T06:08:33.757Z,0.30
2023-03-24T06:08:55.685Z,0.30
2023-03-24T06:09:19.727Z,0.40
2023-03-24T06:09:42.558Z,0.30
2023-03-24T06:10:10.141Z,0.40
2023-03-24T06:10:40.784Z,0.20
2023-03-24T06:11:04.047Z,0.80
2023-03-24T06:11:31.107Z,0.50
2023-03-24T06:11:58.889Z,0.20
2023-03-24T06:12:22.623Z,0.40
2023-03-24T06:12:55.843Z,0.22
2023-03-24T06:13:20.424Z,0.30
2023-03-24T06:13:42.314Z,0.57